createdAt,value
2023-12-30T00:02:52.717Z,1.74
2023-12-30T00:05:55.179Z,1.77
2023-12-30T00:08:57.673Z,1.81
2023-12-30T00:12:02.496Z,1.77
2023-12-30T00:15:05.402Z,1.87
2023-12-30T00:18:08.311Z,1.94
2023-12-30T00:21:10.875Z,2.04
2023-12-30T00:24:13.362Z,2.05
2023-12-30T00:27:18.114Z,2.10
2023-12-30T00:30:20.635Z,1.96
2023-12-30T00:33:23.275Z,2.04
2023-12-30T00:36:31.180Z,2.08
2023-12-30T00:39:33.651Z,2.19
2023-12-30T00:42:36.177Z,2.26
2023-12-30T00:45:38.692Z,2.26
2023-12-30T00:48:44.593Z,2.28
2023-12-30T00:51:50.122Z,2.31
2023-12-30T00:54:57.750Z,2.32
2023-12-30T00:58:00.400Z,2.31
2023-12-30T01:01:03.113Z,2.21
2023-12-30T01:04:05.735Z,2.05
2023-12-30T01:07:12.140Z,2.19
2023-12-30T01:10:18.056Z,2.13
2023-12-30T01:13:22.764Z,1.98
2023-12-30T01:16:26.335Z,1.88
2023-12-30T01:19:28.896Z,2.06
2023-12-30T01:22:31.533Z,1.98
2023-12-30T01:25:34.105Z,1.91
2023-12-30T01:28:39.469Z,1.95
2023-12-30T01:31:42.188Z,1.94
2023-12-30T01:34:44.940Z,2.00
2023-12-30T01:37:48.158Z,1.97
2023-12-30T01:40:54.338Z,1.95
2023-12-30T01:43:59.613Z,1.72
2023-12-30T01:47:02.670Z,1.65
2023-12-30T01:50:08.780Z,1.57
2023-12-30T01:53:13.725Z,1.68
2023-12-30T01:56:18.504Z,1.56
2023-12-30T01:59:21.252Z,1.64
2023-12-30T02:02:24.035Z,1.64
2023-12-30T02:05:27.169Z,1.65
2023-12-30T02:08:29.722Z,1.74
2023-12-30T02:11:32.233Z,1.74
2023-12-30T02:14:34.878Z,1.57
2023-12-30T02:17:37.673Z,1.58
2023-12-30T02:20:42.816Z,1.53
2023-12-30T02:23:45.658Z,1.40
2023-12-30T02:26:53.328Z,1.48
2023-12-30T02:29:58.913Z,1.52
2023-12-30T02:33:01.731Z,1.60
2023-12-30T02:36:04.788Z,1.55
2023-12-30T02:39:07.711Z,1.61
2023-12-30T02:42:10.212Z,1.50
2023-12-30T02:45:15.726Z,1.53
2023-12-30T02:48:19.142Z,1.53
2023-12-30T02:51:23.833Z,1.49
2023-12-30T02:54:26.418Z,1.46
2023-12-30T02:57:31.038Z,1.37
2023-12-30T03:00:33.475Z,1.42
2023-12-30T03:03:38.083Z,1.38
2023-12-30T03:06:40.591Z,1.36
2023-12-30T03:09:43.051Z,1.27
2023-12-30T03:12:45.481Z,1.16
2023-12-30T03:15:49.215Z,1.22
2023-12-30T03:18:51.667Z,1.12
2023-12-30T03:21:55.034Z,1.18
2023-12-30T03:24:57.633Z,1.19
2023-12-30T03:28:00.131Z,1.25
2023-12-30T03:31:05.361Z,1.25
2023-12-30T03:34:08.307Z,1.20
2023-12-30T03:37:18.268Z,1.17
2023-12-30T03:40:20.779Z,1.10
2023-12-30T03:43:23.343Z,0.99
2023-12-30T03:46:25.928Z,1.07
2023-12-30T03:49:28.772Z,1.12
2023-12-30T03:52:31.636Z,1.12
2023-12-30T03:55:36.310Z,1.02
2023-12-30T03:58:39.226Z,1.05
2023-12-30T04:01:45.033Z,1.00
2023-12-30T04:04:48.309Z,1.00
2023-12-30T04:07:53.234Z,0.93
2023-12-30T04:10:55.653Z,1.04
2023-12-30T04:13:58.122Z,0.60
2023-12-30T04:17:00.609Z,0.76
2023-12-30T04:20:03.718Z,0.74
2023-12-30T04:23:06.485Z,0.75
2023-12-30T04:26:09.761Z,0.86
2023-12-30T04:29:12.481Z,0.83
2023-12-30T04:32:14.942Z,0.84
2023-12-30T04:35:17.422Z,0.88
2023-12-30T04:38:21.123Z,0.84
2023-12-30T04:41:26.098Z,0.77
2023-12-30T04:44:28.537Z,0.79
2023-12-30T04:47:33.359Z,0.86
2023-12-30T04:50:36.353Z,0.88
2023-12-30T04:53:38.879Z,0.91
2023-12-30T04:56:41.499Z,0.75
2023-12-30T04:59:46.623Z,0.53
2023-12-30T05:02:49.255Z,0.60
2023-12-30T05:05:52.623Z,0.58
2023-12-30T05:08:55.268Z,0.48
2023-12-30T05:11:57.822Z,0.30
2023-12-30T05:15:02.574Z,0.46
2023-12-30T05:18:05.703Z,0.52
2023-12-30T05:21:17.854Z,0.54
2023-12-30T05:24:20.388Z,0.36
2023-12-30T05:27:23.089Z,0.32
2023-12-30T05:30:30.191Z,0.51
2023-12-30T05:33:35.227Z,0.23
2023-12-30T05:36:38.947Z,0.38
2023-12-30T05:39:41.524Z,0.25
2023-12-30T05:42:43.974Z,0.33
2023-12-30T05:45:46.522Z,0.42
2023-12-30T05:48:49.077Z,0.29
2023-12-30T05:51:51.932Z,0.34
2023-12-30T05:54:54.623Z,0.17
2023-12-30T05:57:57.049Z,0.18
2023-12-30T06:00:59.575Z,0.21
2023-12-30T06:04:02.315Z,0.24
2023-12-30T06:07:07.432Z,0.28
2023-12-30T06:10:10.388Z,0.22
2023-12-30T06:13:18.760Z,0.09
2023-12-30T06:16:23.847Z,0.19
2023-12-30T06:19:29.048Z,0.28
2023-12-30T06:22:37.466Z,0.08
2023-12-30T06:25:40.630Z,0.22
2023-12-30T06:28:51.872Z,0.31
2023-12-30T06:32:00.330Z,0.41
2023-12-30T06:35:33.577Z,0.44
2023-12-30T06:39:25.990Z,0.43
2023-12-30T06:42:31.006Z,0.14
2023-12-30T06:45:33.477Z,0.14
2023-12-30T06:48:36.063Z,0.31
2023-12-30T06:51:38.538Z,0.22
2023-12-30T06:54:41.928Z,0.32
2023-12-30T06:57:44.744Z,0.39
2023-12-30T07:00:47.262Z,0.53
2023-12-30T07:03:49.757Z,0.62
2023-12-30T07:06:52.485Z,0.69
2023-12-30T07:09:55.100Z,0.81
2023-12-30T07:12:58.160Z,0.94
2023-12-30T07:16:00.915Z,1.03
2023-12-30T07:19:03.481Z,0.97
2023-12-30T07:22:06.089Z,1.07
2023-12-30T07:25:11.114Z,1.05
2023-12-30T07:28:16.170Z,1.10
2023-12-30T07:31:21.119Z,0.85
2023-12-30T07:34:23.760Z,1.03
2023-12-30T07:37:26.321Z,1.10
2023-12-30T07:40:31.203Z,1.21
2023-12-30T07:43:36.857Z,1.32
2023-12-30T07:46:41.611Z,1.47
2023-12-30T07:49:44.228Z,1.48
2023-12-30T07:52:46.998Z,1.45
2023-12-30T07:55:49.599Z,1.64
2023-12-30T07:58:52.171Z,1.83
2023-12-30T08:01:57.685Z,1.69
2023-12-30T08:05:01.801Z,1.77
2023-12-30T08:08:04.882Z,1.98
2023-12-30T08:11:07.461Z,2.18
2023-12-30T08:14:10.717Z,2.38
2023-12-30T08:17:13.751Z,2.55
2023-12-30T08:20:16.524Z,2.54
2023-12-30T08:23:18.985Z,2.58
2023-12-30T08:26:26.722Z,2.66
2023-12-30T08:29:34.943Z,2.82
2023-12-30T08:32:38.073Z,2.80
2023-12-30T08:35:40.677Z,2.67
2023-12-30T08:38:43.508Z,2.81
2023-12-30T08:41:46.178Z,2.88
2023-12-30T08:44:48.852Z,2.96
2023-12-30T08:47:53.839Z,3.03
2023-12-30T08:50:56.461Z,3.26
2023-12-30T08:53:58.973Z,3.32
2023-12-30T08:57:01.712Z,3.58
2023-12-30T09:00:11.092Z,3.77
2023-12-30T09:03:17.846Z,3.95
2023-12-30T09:06:22.140Z,4.25
2023-12-30T09:09:24.640Z,4.47
2023-12-30T09:12:27.114Z,4.45
2023-12-30T09:15:37.170Z,4.13
2023-12-30T09:18:44.351Z,4.21
2023-12-30T09:21:47.024Z,4.25
2023-12-30T09:24:50.129Z,4.21
2023-12-30T09:27:52.627Z,3.94
2023-12-30T09:30:57.320Z,4.04
2023-12-30T09:34:00.372Z,3.94
2023-12-30T09:37:03.055Z,4.10
2023-12-30T09:40:10.009Z,4.24
2023-12-30T09:43:12.658Z,4.46
2023-12-30T09:46:15.908Z,4.56
2023-12-30T09:49:18.671Z,4.94
2023-12-30T09:52:23.643Z,5.21
2023-12-30T09:55:28.462Z,5.57
2023-12-30T09:58:30.936Z,5.65
2023-12-30T10:01:35.163Z,5.59
2023-12-30T10:04:40.022Z,5.96
2023-12-30T10:07:51.782Z,5.66
2023-12-30T10:10:58.665Z,6.52
2023-12-30T10:14:04.698Z,7.11
2023-12-30T10:17:07.267Z,7.20
2023-12-30T10:20:11.777Z,7.87
2023-12-30T10:23:15.457Z,8.47
2023-12-30T10:26:19.237Z,8.92
2023-12-30T10:29:22.186Z,8.65
2023-12-30T10:32:24.730Z,8.59
2023-12-30T10:35:29.773Z,8.50
2023-12-30T10:38:32.226Z,8.59
2023-12-30T10:41:34.610Z,8.36
2023-12-30T10:44:39.459Z,9.03
2023-12-30T10:47:42.190Z,8.78
2023-12-30T10:50:44.827Z,9.22
2023-12-30T10:53:49.105Z,9.19
2023-12-30T10:56:55.857Z,9.23
2023-12-30T10:59:58.621Z,9.41
2023-12-30T11:03:04.284Z,9.57
2023-12-30T11:06:28.503Z,9.72
2023-12-30T11:09:31.161Z,10.11
2023-12-30T11:12:33.800Z,10.02
2023-12-30T11:15:39.507Z,9.46
2023-12-30T11:18:52.848Z,9.02
2023-12-30T11:21:59.522Z,9.25
2023-12-30T11:25:02.025Z,9.31
2023-12-30T11:28:20.264Z,9.07
2023-12-30T11:31:34.028Z,9.27
2023-12-30T11:34:36.646Z,8.83
2023-12-30T11:37:40.718Z,9.19
2023-12-30T11:40:43.972Z,9.19
2023-12-30T11:43:46.696Z,8.90
2023-12-30T11:46:51.733Z,9.19
2023-12-30T11:50:12.998Z,9.65
2023-12-30T11:53:20.589Z,9.64
2023-12-30T11:56:23.621Z,9.89
2023-12-30T11:59:26.481Z,10.29
2023-12-30T12:02:29.745Z,10.22
2023-12-30T12:05:34.687Z,9.68
2023-12-30T12:08:41.289Z,9.71
2023-12-30T12:11:43.871Z,9.42
2023-12-30T12:14:51.299Z,9.40
2023-12-30T12:17:53.906Z,9.98
2023-12-30T12:20:56.429Z,10.48
2023-12-30T12:23:58.891Z,11.01
2023-12-30T12:27:04.511Z,11.27
2023-12-30T12:30:10.566Z,11.43
2023-12-30T12:33:14.324Z,11.27
2023-12-30T12:36:20.677Z,11.10
2023-12-30T12:39:25.663Z,11.50
2023-12-30T12:42:31.038Z,11.96
2023-12-30T12:45:34.087Z,11.88
2023-12-30T12:48:36.756Z,12.76
2023-12-30T12:51:40.719Z,13.68
2023-12-30T12:54:46.630Z,16.04
2023-12-30T12:57:49.091Z,15.09
2023-12-30T13:00:51.574Z,16.60
2023-12-30T13:03:57.139Z,20.82
2023-12-30T13:06:59.747Z,19.52
2023-12-30T13:10:22.470Z,21.49
2023-12-30T13:13:25.067Z,25.50
2023-12-30T13:16:27.753Z,25.46
2023-12-30T13:19:30.447Z,26.39
2023-12-30T13:22:35.417Z,25.06
2023-12-30T13:25:39.536Z,25.37
2023-12-30T13:28:43.263Z,24.16
2023-12-30T13:31:47.320Z,22.80
2023-12-30T13:34:52.911Z,20.86
2023-12-30T13:37:56.936Z,18.73
2023-12-30T13:41:01.798Z,16.89
2023-12-30T13:44:10.815Z,14.29
2023-12-30T13:47:31.916Z,12.41
2023-12-30T13:50:49.217Z,11.61
2023-12-30T13:53:54.764Z,10.79
2023-12-30T13:57:12.617Z,10.41
2023-12-30T14:00:17.299Z,10.16
2023-12-30T14:03:24.603Z,9.98
2023-12-30T14:06:35.078Z,9.74
2023-12-30T14:09:55.262Z,9.64
2023-12-30T14:13:02.608Z,9.57
2023-12-30T14:16:07.161Z,9.42
2023-12-30T14:19:10.395Z,9.45
2023-12-30T14:22:13.529Z,9.51
2023-12-30T14:25:18.377Z,9.12
2023-12-30T14:28:23.279Z,8.79
2023-12-30T14:31:25.753Z,8.68
2023-12-30T14:34:28.362Z,8.56
2023-12-30T14:37:31.263Z,8.34
2023-12-30T14:40:33.786Z,8.26
2023-12-30T14:43:36.555Z,8.15
2023-12-30T14:46:39.140Z,8.12
2023-12-30T14:49:42.534Z,7.97
2023-12-30T14:52:45.307Z,7.81
2023-12-30T14:55:49.414Z,7.58
2023-12-30T14:58:52.173Z,7.36
2023-12-30T15:01:56.180Z,7.25
2023-12-30T15:05:02.050Z,7.32
2023-12-30T15:08:05.365Z,7.31
2023-12-30T15:11:10.119Z,7.28
2023-12-30T15:14:12.896Z,7.06
2023-12-30T15:17:15.427Z,6.91
2023-12-30T15:20:20.233Z,6.81
2023-12-30T15:23:22.906Z,6.71
2023-12-30T15:26:25.451Z,6.71
2023-12-30T15:29:33.146Z,6.68
2023-12-30T15:32:39.370Z,6.68
2023-12-30T15:35:43.048Z,6.60
2023-12-30T15:38:45.734Z,6.50
2023-12-30T15:41:48.594Z,6.39
2023-12-30T15:44:51.137Z,6.34
2023-12-30T15:47:53.766Z,6.33
2023-12-30T15:50:56.432Z,6.32
2023-12-30T15:53:59.540Z,6.34
2023-12-30T15:57:04.961Z,6.29
2023-12-30T16:00:09.776Z,6.33
2023-12-30T16:03:14.870Z,6.26
2023-12-30T16:06:20.076Z,6.22
2023-12-30T16:09:22.550Z,6.08
2023-12-30T16:12:27.403Z,5.95
2023-12-30T16:15:32.540Z,5.90
2023-12-30T16:18:35.937Z,5.71
2023-12-30T16:21:38.674Z,5.56
2023-12-30T16:24:41.197Z,5.41
2023-12-30T16:27:48.414Z,5.27
2023-12-30T16:30:51.696Z,5.17
2023-12-30T16:33:56.511Z,5.10
2023-12-30T16:37:01.623Z,5.08
2023-12-30T16:40:07.266Z,4.94
2023-12-30T16:43:09.859Z,4.96
2023-12-30T16:46:15.027Z,4.85
2023-12-30T16:49:17.556Z,4.75
2023-12-30T16:52:20.738Z,4.75
2023-12-30T16:55:27.130Z,4.74
2023-12-30T16:58:32.142Z,4.71
2023-12-30T17:01:40.503Z,4.70
2023-12-30T17:04:43.523Z,4.65
2023-12-30T17:07:48.489Z,4.72
2023-12-30T17:10:53.341Z,4.59
2023-12-30T17:13:55.906Z,4.48
2023-12-30T17:16:58.394Z,4.40
2023-12-30T17:20:04.077Z,4.44
2023-12-30T17:23:09.652Z,4.42
2023-12-30T17:26:13.345Z,4.36
2023-12-30T17:29:18.404Z,4.23
2023-12-30T17:32:21.788Z,4.16
2023-12-30T17:35:29.783Z,4.15
2023-12-30T17:38:32.494Z,3.88
2023-12-30T17:41:35.065Z,3.93
2023-12-30T17:44:37.485Z,3.91
2023-12-30T17:47:40.107Z,3.89
2023-12-30T17:50:45.448Z,3.85
2023-12-30T17:53:48.190Z,3.78
2023-12-30T17:56:50.857Z,3.69
2023-12-30T17:59:55.928Z,3.66
2023-12-30T18:02:58.627Z,3.65
2023-12-30T18:06:01.405Z,3.64
2023-12-30T18:09:07.001Z,3.63
2023-12-30T18:12:12.256Z,3.59
2023-12-30T18:15:15.970Z,3.52
2023-12-30T18:18:21.855Z,3.44
2023-12-30T18:21:30.303Z,3.38
2023-12-30T18:24:32.899Z,3.32
2023-12-30T18:27:40.463Z,3.28
2023-12-30T18:30:46.102Z,3.37
2023-12-30T18:33:48.662Z,3.40
2023-12-30T18:36:53.415Z,3.33
2023-12-30T18:39:55.902Z,3.35
2023-12-30T18:42:59.107Z,3.33
2023-12-30T18:46:02.508Z,3.34
2023-12-30T18:49:31.173Z,3.35
2023-12-30T18:52:40.890Z,3.46
2023-12-30T18:55:46.837Z,3.43
2023-12-30T18:58:51.738Z,3.41
2023-12-30T19:01:57.308Z,3.40
2023-12-30T19:06:37.476Z,3.34
2023-12-30T19:09:47.414Z,3.28
2023-12-30T19:12:51.170Z,3.18
2023-12-30T19:15:58.202Z,3.16
2023-12-30T19:19:01.259Z,3.09
2023-12-30T19:22:08.568Z,3.09
2023-12-30T19:25:16.207Z,3.01
2023-12-30T19:28:20.953Z,2.92
2023-12-30T19:31:26.057Z,2.89
2023-12-30T19:34:30.915Z,2.89
2023-12-30T19:37:33.782Z,2.83
2023-12-30T19:40:36.393Z,2.79
2023-12-30T19:43:38.977Z,2.70
2023-12-30T19:46:43.092Z,2.69
2023-12-30T19:49:45.934Z,2.66
2023-12-30T19:52:51.127Z,2.58
2023-12-30T19:55:53.767Z,2.50
2023-12-30T19:58:56.312Z,2.49
2023-12-30T20:02:05.513Z,2.52
2023-12-30T20:05:19.960Z,2.52
2023-12-30T20:08:27.329Z,2.60
2023-12-30T20:11:29.799Z,2.63
2023-12-30T20:14:38.004Z,2.67
2023-12-30T20:17:48.829Z,2.68
2023-12-30T20:20:52.119Z,2.62
2023-12-30T20:24:02.941Z,2.60
2023-12-30T20:27:08.148Z,2.58
2023-12-30T20:30:13.423Z,2.55
2023-12-30T20:33:16.995Z,2.53
2023-12-30T20:36:23.751Z,2.48
2023-12-30T20:39:26.282Z,2.39
2023-12-30T20:42:30.313Z,2.33
2023-12-30T20:45:39.492Z,2.29
2023-12-30T20:48:42.408Z,2.29
2023-12-30T20:51:51.536Z,2.27
2023-12-30T20:55:12.045Z,2.25
2023-12-30T20:58:27.901Z,2.25
2023-12-30T21:01:31.922Z,2.24
2023-12-30T21:04:43.292Z,2.21
2023-12-30T21:07:45.908Z,2.17
2023-12-30T21:10:48.614Z,2.11
2023-12-30T21:19:10.082Z,1.87
2023-12-30T21:22:14.708Z,1.83
2023-12-30T21:25:23.712Z,1.85
2023-12-30T21:28:31.713Z,1.92
2023-12-30T21:31:34.376Z,1.96
2023-12-30T21:34:36.897Z,1.97
2023-12-30T21:37:47.700Z,2.00
2023-12-30T21:40:51.098Z,1.98
2023-12-30T21:43:56.223Z,1.87
2023-12-30T21:46:58.864Z,1.84
2023-12-30T21:50:04.864Z,1.82
2023-12-30T21:53:25.284Z,1.80
2023-12-30T21:56:27.782Z,1.79
2023-12-30T21:59:33.434Z,1.82
2023-12-30T22:02:38.918Z,1.80
2023-12-30T22:05:42.614Z,1.75
2023-12-30T22:08:45.329Z,1.76
2023-12-30T22:11:47.867Z,1.73
2023-12-30T22:14:50.333Z,1.69
2023-12-30T22:17:53.493Z,1.67
2023-12-30T22:20:56.099Z,1.63
2023-12-30T22:23:58.494Z,1.66
2023-12-30T22:27:04.628Z,1.67
2023-12-30T22:30:10.227Z,1.65
2023-12-30T22:33:12.914Z,1.60
2023-12-30T22:36:15.855Z,1.56
2023-12-30T22:39:19.811Z,1.54
2023-12-30T22:42:22.330Z,1.53
2023-12-30T22:45:29.045Z,1.53
2023-12-30T22:48:31.725Z,1.56
2023-12-30T22:51:34.200Z,1.57
2023-12-30T22:54:38.923Z,1.55
2023-12-30T22:57:42.203Z,1.58
2023-12-30T23:00:46.758Z,1.56
2023-12-30T23:03:49.548Z,1.52
2023-12-30T23:06:54.711Z,1.50
2023-12-30T23:09:57.231Z,1.50
2023-12-30T23:13:01.784Z,1.42
2023-12-30T23:16:04.740Z,1.40
2023-12-30T23:19:11.904Z,1.43
2023-12-30T23:22:16.769Z,1.40
2023-12-30T23:25:19.279Z,1.39
2023-12-30T23:28:21.810Z,1.36
2023-12-30T23:31:24.448Z,1.36
2023-12-30T23:34:39.223Z,1.39
2023-12-30T23:37:57.630Z,1.38
2023-12-30T23:41:05.349Z,1.35
2023-12-30T23:44:10.514Z,1.28
2023-12-30T23:47:12.977Z,1.18
2023-12-30T23:50:18.223Z,1.17
2023-12-30T23:53:20.711Z,1.13
2023-12-30T23:56:25.593Z,1.11
2023-12-30T23:59:30.856Z,1.13
